createdAt,value
2018-09-09T00:00:20.271Z,0.00
2018-09-09T00:01:20.237Z,0.00
2018-09-09T00:02:20.246Z,0.00
2018-09-09T00:03:20.214Z,0.00
2018-09-09T00:04:20.201Z,0.00
2018-09-09T00:05:20.217Z,0.00
2018-09-09T00:06:20.180Z,0.00
2018-09-09T00:07:20.168Z,0.00
2018-09-09T00:08:20.157Z,0.00
2018-09-09T00:09:20.146Z,0.00
2018-09-09T00:10:20.156Z,0.00
2018-09-09T00:11:20.124Z,0.00
2018-09-09T00:12:20.113Z,0.00
2018-09-09T00:13:20.102Z,0.00
2018-09-09T00:14:20.091Z,0.00
2018-09-09T00:15:20.101Z,0.00
2018-09-09T00:16:20.068Z,0.00
2018-09-09T00:17:20.057Z,0.00
2018-09-09T00:18:20.046Z,0.00
2018-09-09T00:19:20.035Z,0.00
2018-09-09T00:20:20.045Z,0.00
2018-09-09T00:21:20.018Z,0.00
2018-09-09T00:22:20.022Z,0.00
2018-09-09T00:23:19.990Z,0.00
2018-09-09T00:24:19.979Z,0.00
2018-09-09T00:25:19.989Z,0.00
2018-09-09T00:26:19.956Z,0.00
2018-09-09T00:27:19.945Z,0.00
2018-09-09T00:28:19.936Z,0.00
2018-09-09T00:29:19.924Z,0.00
2018-09-09T00:30:19.937Z,0.00
2018-09-09T00:31:19.901Z,0.00
2018-09-09T00:32:19.889Z,0.00
2018-09-09T00:33:19.878Z,0.00
2018-09-09T00:34:19.867Z,0.00
2018-09-09T00:35:19.879Z,0.00
2018-09-09T00:36:19.845Z,0.00
2018-09-09T00:37:19.835Z,0.00
2018-09-09T00:38:19.822Z,0.00
2018-09-09T00:39:19.812Z,0.00
2018-09-09T00:40:19.821Z,0.00
2018-09-09T00:41:19.790Z,0.00
2018-09-09T00:42:19.777Z,0.00
2018-09-09T00:43:19.767Z,0.00
2018-09-09T00:44:19.755Z,0.00
2018-09-09T00:45:19.766Z,0.00
2018-09-09T00:46:19.734Z,0.00
2018-09-09T00:47:19.724Z,0.00
2018-09-09T00:48:19.711Z,0.00
2018-09-09T00:49:19.702Z,0.00
2018-09-09T00:50:19.713Z,0.00
2018-09-09T00:51:19.678Z,0.00
2018-09-09T00:52:19.666Z,0.00
2018-09-09T00:53:19.656Z,0.00
2018-09-09T00:54:19.645Z,0.00
2018-09-09T00:55:19.655Z,0.00
2018-09-09T00:56:19.622Z,0.00
2018-09-09T00:57:19.611Z,0.00
2018-09-09T00:58:19.599Z,0.00
2018-09-09T00:59:19.588Z,0.00
2018-09-09T01:00:19.599Z,0.00
2018-09-09T01:01:19.567Z,0.00
2018-09-09T01:02:19.555Z,0.00
2018-09-09T01:03:19.544Z,0.00
2018-09-09T01:04:19.532Z,0.00
2018-09-09T01:05:19.543Z,0.00
2018-09-09T01:06:19.510Z,0.00
2018-09-09T01:07:19.500Z,0.00
2018-09-09T01:08:19.489Z,0.00
2018-09-09T01:09:19.476Z,0.00
2018-09-09T01:10:19.486Z,0.00
2018-09-09T01:11:19.454Z,0.00
2018-09-09T01:12:19.443Z,0.00
2018-09-09T01:13:19.433Z,0.00
2018-09-09T01:14:19.421Z,0.00
2018-09-09T01:15:19.433Z,0.00
2018-09-09T01:16:19.398Z,0.00
2018-09-09T01:17:19.387Z,0.00
2018-09-09T01:18:19.376Z,0.00
2018-09-09T01:19:19.364Z,0.00
2018-09-09T01:20:19.376Z,0.00
2018-09-09T01:21:19.342Z,0.00
2018-09-09T01:22:19.330Z,0.00
2018-09-09T01:23:19.321Z,0.00
2018-09-09T01:24:19.309Z,0.00
2018-09-09T01:25:19.319Z,0.00
2018-09-09T01:26:19.287Z,0.00
2018-09-09T01:27:19.276Z,0.00
2018-09-09T01:28:19.270Z,0.00
2018-09-09T01:29:19.254Z,0.00
2018-09-09T01:30:19.265Z,0.00
2018-09-09T01:31:19.232Z,0.00
2018-09-09T01:32:19.220Z,0.00
2018-09-09T01:33:19.209Z,0.00
2018-09-09T01:34:19.197Z,0.00
2018-09-09T01:35:19.208Z,0.00
2018-09-09T01:36:19.176Z,0.00
2018-09-09T01:37:19.164Z,0.00
2018-09-09T01:38:19.174Z,0.00
2018-09-09T01:39:19.141Z,0.00
2018-09-09T01:40:19.132Z,0.00
2018-09-09T01:41:19.141Z,0.00
2018-09-09T01:42:19.109Z,0.00
2018-09-09T01:43:19.097Z,0.00
2018-09-09T01:44:19.086Z,0.00
2018-09-09T01:45:19.075Z,0.00
2018-09-09T01:46:19.086Z,0.00
2018-09-09T01:47:19.055Z,0.00
2018-09-09T01:48:19.048Z,0.00
2018-09-09T01:49:19.030Z,0.00
2018-09-09T01:50:19.020Z,0.00
2018-09-09T01:51:19.030Z,0.00
2018-09-09T01:52:18.998Z,0.00
2018-09-09T01:53:18.986Z,0.00
2018-09-09T01:54:18.975Z,0.00
2018-09-09T01:55:18.963Z,0.00
2018-09-09T01:56:18.972Z,0.00
2018-09-09T01:57:18.941Z,0.00
2018-09-09T01:58:18.930Z,0.00
2018-09-09T01:59:18.919Z,0.00
2018-09-09T02:00:18.907Z,0.00
2018-09-09T02:01:18.917Z,0.00
2018-09-09T02:02:18.885Z,0.00
2018-09-09T02:03:18.878Z,0.00
2018-09-09T02:04:18.863Z,0.00
2018-09-09T02:05:18.851Z,0.00
2018-09-09T02:06:18.862Z,0.00
2018-09-09T02:07:18.828Z,0.00
2018-09-09T02:08:18.818Z,0.00
2018-09-09T02:09:18.807Z,0.00
2018-09-09T02:10:18.798Z,0.00
2018-09-09T02:11:18.804Z,0.00
2018-09-09T02:12:18.776Z,0.00
2018-09-09T02:13:18.763Z,0.00
2018-09-09T02:14:18.751Z,0.00
2018-09-09T02:15:18.740Z,0.00
2018-09-09T02:16:18.752Z,0.00
2018-09-09T02:17:18.719Z,0.00
2018-09-09T02:18:18.706Z,0.00
2018-09-09T02:19:18.696Z,0.00
2018-09-09T02:20:18.684Z,0.00
2018-09-09T02:21:18.694Z,0.00
2018-09-09T02:22:18.661Z,0.00
2018-09-09T02:23:18.652Z,0.00
2018-09-09T02:24:18.639Z,0.00
2018-09-09T02:25:18.628Z,0.00
2018-09-09T02:26:18.641Z,0.00
2018-09-09T02:27:18.610Z,0.00
2018-09-09T02:28:18.597Z,0.00
2018-09-09T02:29:18.583Z,0.00
2018-09-09T02:30:18.573Z,0.00
2018-09-09T02:31:18.583Z,0.00
2018-09-09T02:32:18.551Z,0.00
2018-09-09T02:33:18.539Z,0.00
2018-09-09T02:34:18.528Z,0.00
2018-09-09T02:35:18.518Z,0.00
2018-09-09T02:36:18.528Z,0.00
2018-09-09T02:37:18.497Z,0.00
2018-09-09T02:38:18.486Z,0.00
2018-09-09T02:39:18.475Z,0.00
2018-09-09T02:40:18.462Z,0.00
2018-09-09T02:41:18.474Z,0.00
2018-09-09T02:42:18.438Z,0.00
2018-09-09T02:43:18.428Z,0.00
2018-09-09T02:44:18.417Z,0.00
2018-09-09T02:45:18.405Z,0.00
2018-09-09T02:46:18.418Z,0.00
2018-09-09T02:47:18.384Z,0.00
2018-09-09T02:48:18.373Z,0.00
2018-09-09T02:49:18.362Z,0.00
2018-09-09T02:50:18.350Z,0.00
2018-09-09T02:51:18.359Z,0.00
2018-09-09T02:52:18.329Z,0.00
2018-09-09T02:53:18.317Z,0.00
2018-09-09T02:54:18.305Z,0.00
2018-09-09T02:55:18.296Z,0.00
2018-09-09T02:56:18.305Z,0.00
2018-09-09T02:57:18.271Z,0.00
2018-09-09T02:58:18.262Z,0.00
2018-09-09T02:59:18.249Z,0.00
2018-09-09T03:00:18.238Z,0.00
2018-09-09T03:01:18.250Z,0.00
2018-09-09T03:02:18.215Z,0.00
2018-09-09T03:03:18.205Z,0.00
2018-09-09T03:04:18.215Z,0.00
2018-09-09T03:05:18.181Z,0.00
2018-09-09T03:06:18.170Z,0.00
2018-09-09T03:07:18.180Z,0.00
2018-09-09T03:08:18.148Z,0.00
2018-09-09T03:09:18.137Z,0.00
2018-09-09T03:10:18.129Z,0.00
2018-09-09T03:11:18.115Z,0.00
2018-09-09T03:12:18.124Z,0.00
2018-09-09T03:13:18.091Z,0.00
2018-09-09T03:14:18.082Z,0.00
2018-09-09T03:15:18.070Z,0.00
2018-09-09T03:16:18.060Z,0.00
2018-09-09T03:17:18.068Z,0.00
2018-09-09T03:18:18.039Z,0.00
2018-09-09T03:19:18.024Z,0.00
2018-09-09T03:20:18.014Z,0.00
2018-09-09T03:21:18.003Z,0.00
2018-09-09T03:22:18.013Z,0.00
2018-09-09T03:23:17.982Z,0.00
2018-09-09T03:24:17.970Z,0.00
2018-09-09T03:25:17.958Z,0.00
2018-09-09T03:26:17.947Z,0.00
2018-09-09T03:27:17.957Z,0.00
2018-09-09T03:28:17.925Z,0.00
2018-09-09T03:29:17.915Z,0.00
2018-09-09T03:30:17.904Z,0.00
2018-09-09T03:31:17.893Z,0.00
2018-09-09T03:32:17.905Z,0.00
2018-09-09T03:33:17.869Z,0.00
2018-09-09T03:34:17.859Z,0.00
2018-09-09T03:35:17.847Z,0.00
2018-09-09T03:36:17.840Z,0.00
2018-09-09T03:37:17.846Z,0.00
2018-09-09T03:38:17.813Z,0.00
2018-09-09T03:39:17.802Z,0.00
2018-09-09T03:40:17.791Z,0.00
2018-09-09T03:41:17.780Z,0.00
2018-09-09T03:42:17.788Z,0.00
2018-09-09T03:43:17.759Z,0.00
2018-09-09T03:44:17.747Z,0.00
2018-09-09T03:45:17.736Z,0.00
2018-09-09T03:46:17.724Z,0.00
2018-09-09T03:47:17.735Z,0.00
2018-09-09T03:48:17.701Z,0.00
2018-09-09T03:49:17.691Z,0.00
2018-09-09T03:50:17.681Z,0.00
2018-09-09T03:51:17.669Z,0.00
2018-09-09T03:52:17.678Z,0.00
2018-09-09T03:53:17.646Z,0.00
2018-09-09T03:54:17.639Z,0.00
2018-09-09T03:55:17.625Z,0.00
2018-09-09T03:56:17.616Z,0.00
2018-09-09T03:57:17.623Z,0.00
2018-09-09T03:58:17.590Z,0.00
2018-09-09T03:59:17.578Z,0.00
2018-09-09T04:00:17.589Z,0.00
2018-09-09T04:01:17.558Z,0.00
2018-09-09T04:02:17.567Z,0.00
2018-09-09T04:03:17.556Z,0.00
2018-09-09T04:04:17.524Z,0.00
2018-09-09T04:05:17.513Z,0.00
2018-09-09T04:06:17.501Z,0.00
2018-09-09T04:07:17.510Z,0.00
2018-09-09T04:08:17.479Z,0.00
2018-09-09T04:09:17.468Z,0.00
2018-09-09T04:10:17.457Z,0.00
2018-09-09T04:11:17.445Z,0.00
2018-09-09T04:12:17.456Z,0.00
2018-09-09T04:13:17.423Z,0.00
2018-09-09T04:14:17.413Z,0.00
2018-09-09T04:15:17.428Z,0.00
2018-09-09T04:16:17.389Z,0.00
2018-09-09T04:17:17.400Z,0.00
2018-09-09T04:18:17.369Z,0.00
2018-09-09T04:19:17.356Z,0.00
2018-09-09T04:20:17.349Z,0.00
2018-09-09T04:21:17.334Z,0.00
2018-09-09T04:22:17.342Z,0.00
2018-09-09T04:23:17.312Z,0.00
2018-09-09T04:24:17.300Z,0.00
2018-09-09T04:25:17.289Z,0.00
2018-09-09T04:26:17.282Z,0.00
2018-09-09T04:27:17.289Z,0.00
2018-09-09T04:28:17.256Z,0.00
2018-09-09T04:29:17.244Z,0.00
2018-09-09T04:30:17.233Z,0.00
2018-09-09T04:31:17.224Z,0.00
2018-09-09T04:32:17.241Z,0.00
2018-09-09T04:33:17.207Z,0.00
2018-09-09T04:34:17.189Z,0.00
2018-09-09T04:35:17.178Z,0.00
2018-09-09T04:36:17.166Z,0.00
2018-09-09T04:37:17.176Z,0.00
2018-09-09T04:38:17.144Z,0.00
2018-09-09T04:39:17.133Z,0.00
2018-09-09T04:40:17.122Z,0.00
2018-09-09T04:41:17.111Z,0.00
2018-09-09T04:42:17.120Z,0.00
2018-09-09T04:43:17.090Z,0.00
2018-09-09T04:44:17.078Z,0.00
2018-09-09T04:45:17.070Z,0.00
2018-09-09T04:46:17.059Z,0.00
2018-09-09T04:47:17.066Z,0.00
2018-09-09T04:48:17.057Z,0.00
2018-09-09T04:49:17.022Z,0.00
2018-09-09T04:50:17.011Z,0.00
2018-09-09T04:51:16.999Z,0.00
2018-09-09T04:52:16.988Z,0.00
2018-09-09T04:53:17.001Z,0.00
2018-09-09T04:54:16.966Z,0.00
2018-09-09T04:55:16.955Z,0.00
2018-09-09T04:56:16.943Z,0.00
2018-09-09T04:57:16.932Z,0.00
2018-09-09T04:58:16.943Z,0.00
2018-09-09T04:59:16.912Z,0.00
2018-09-09T05:00:16.899Z,0.00
2018-09-09T05:01:16.926Z,0.00
2018-09-09T05:02:16.876Z,0.00
2018-09-09T05:03:16.886Z,0.00
2018-09-09T05:04:16.854Z,0.00
2018-09-09T05:05:16.843Z,0.00
2018-09-09T05:06:16.832Z,0.00
2018-09-09T05:07:16.821Z,0.00
2018-09-09T05:08:16.830Z,0.00
2018-09-09T05:09:16.798Z,0.00
2018-09-09T05:10:16.787Z,0.00
2018-09-09T05:11:16.776Z,0.00
2018-09-09T05:12:16.767Z,0.00
2018-09-09T05:13:16.777Z,0.00
2018-09-09T05:14:16.745Z,0.00
2018-09-09T05:15:16.733Z,0.00
2018-09-09T05:16:16.721Z,0.00
2018-09-09T05:17:16.708Z,0.00
2018-09-09T05:18:16.719Z,0.00
2018-09-09T05:19:16.688Z,0.00
2018-09-09T05:20:16.678Z,0.00
2018-09-09T05:21:16.665Z,0.00
2018-09-09T05:22:16.656Z,0.00
2018-09-09T05:23:16.664Z,0.00
2018-09-09T05:24:16.631Z,0.00
2018-09-09T05:25:16.623Z,0.00
2018-09-09T05:26:16.611Z,0.00
2018-09-09T05:27:16.600Z,0.00
2018-09-09T05:28:16.608Z,0.00
2018-09-09T05:29:16.575Z,0.00
2018-09-09T05:30:16.564Z,0.00
2018-09-09T05:31:16.553Z,0.00
2018-09-09T05:32:16.542Z,0.00
2018-09-09T05:33:16.550Z,0.00
2018-09-09T05:34:16.518Z,0.00
2018-09-09T05:35:16.509Z,0.00
2018-09-09T05:36:16.497Z,0.00
2018-09-09T05:37:16.485Z,0.00
2018-09-09T05:38:16.494Z,0.00
2018-09-09T05:39:16.465Z,0.00
2018-09-09T05:40:16.454Z,0.00
2018-09-09T05:41:16.444Z,0.00
2018-09-09T05:42:16.438Z,0.00
2018-09-09T05:43:16.441Z,0.00
2018-09-09T05:44:16.408Z,0.00
2018-09-09T05:45:16.396Z,0.00
2018-09-09T05:46:16.385Z,0.00
2018-09-09T05:47:16.374Z,0.00
2018-09-09T05:48:16.384Z,0.00
2018-09-09T05:49:16.351Z,0.00
2018-09-09T05:50:16.350Z,0.00
2018-09-09T05:51:16.331Z,0.00
2018-09-09T05:52:16.319Z,0.00
2018-09-09T05:53:16.328Z,0.00
2018-09-09T05:54:16.295Z,0.00
2018-09-09T05:55:16.285Z,0.00
2018-09-09T05:56:16.274Z,0.00
2018-09-09T05:57:16.262Z,0.00
2018-09-09T05:58:16.272Z,0.00
2018-09-09T05:59:16.241Z,0.00
2018-09-09T06:00:16.229Z,0.00
2018-09-09T06:01:16.217Z,0.00
2018-09-09T06:02:16.209Z,0.00
2018-09-09T06:03:16.217Z,0.00
2018-09-09T06:04:16.187Z,0.00
2018-09-09T06:05:16.173Z,0.00
2018-09-09T06:06:16.164Z,0.00
2018-09-09T06:07:16.150Z,0.00
2018-09-09T06:08:16.160Z,0.00
2018-09-09T06:09:16.129Z,0.00
2018-09-09T06:10:16.118Z,0.00
2018-09-09T06:11:16.106Z,0.00
2018-09-09T06:12:16.097Z,0.00
2018-09-09T06:13:16.104Z,0.00
2018-09-09T06:14:16.073Z,0.00
2018-09-09T06:15:16.062Z,0.00
2018-09-09T06:16:16.051Z,0.00
2018-09-09T06:17:16.039Z,0.00
2018-09-09T06:18:16.049Z,0.00
2018-09-09T06:19:16.017Z,0.00
2018-09-09T06:20:16.006Z,0.00
2018-09-09T06:21:15.994Z,0.00
2018-09-09T06:22:15.984Z,0.00
2018-09-09T06:23:15.993Z,0.00
2018-09-09T06:24:15.961Z,0.00
2018-09-09T06:25:15.954Z,5.62
2018-09-09T06:26:15.938Z,5.62
2018-09-09T06:27:15.928Z,5.62
2018-09-09T06:28:15.987Z,5.62
2018-09-09T06:29:15.905Z,5.62
2018-09-09T06:30:15.895Z,5.62
2018-09-09T06:31:15.883Z,5.62
2018-09-09T06:32:15.873Z,5.62
2018-09-09T06:33:15.884Z,5.62
2018-09-09T06:34:15.873Z,5.62
2018-09-09T06:35:15.838Z,0.00
2018-09-09T06:36:15.829Z,0.00
2018-09-09T06:37:15.816Z,0.00
2018-09-09T06:38:15.817Z,0.00
2018-09-09T06:39:15.815Z,5.62
2018-09-09T06:40:15.785Z,5.62
2018-09-09T06:41:15.774Z,5.62
2018-09-09T06:42:15.759Z,5.62
2018-09-09T06:43:15.748Z,5.62
2018-09-09T06:44:15.760Z,5.62
2018-09-09T06:45:15.727Z,5.62
2018-09-09T06:46:15.715Z,5.62
2018-09-09T06:47:15.706Z,5.62
2018-09-09T06:48:15.694Z,5.62
2018-09-09T06:49:15.703Z,5.62
2018-09-09T06:50:15.671Z,5.62
2018-09-09T06:51:15.712Z,5.62
2018-09-09T06:52:15.648Z,5.62
2018-09-09T06:53:15.638Z,5.62
2018-09-09T06:54:15.649Z,5.62
2018-09-09T06:55:15.640Z,5.62
2018-09-09T06:56:15.604Z,5.62
2018-09-09T06:57:15.596Z,5.62
2018-09-09T06:58:15.605Z,5.62
2018-09-09T06:59:15.596Z,5.62
2018-09-09T07:00:15.560Z,5.62
2018-09-09T07:01:15.548Z,5.62
2018-09-09T07:02:15.560Z,5.62
2018-09-09T07:03:15.531Z,5.62
2018-09-09T07:04:15.538Z,5.62
2018-09-09T07:05:15.503Z,5.62
2018-09-09T07:06:15.498Z,5.62
2018-09-09T07:07:15.481Z,5.62
2018-09-09T07:08:15.469Z,5.62
2018-09-09T07:09:15.480Z,5.62
2018-09-09T07:10:15.448Z,5.62
2018-09-09T07:11:15.569Z,5.62
2018-09-09T07:12:15.425Z,5.62
2018-09-09T07:13:15.414Z,5.62
2018-09-09T07:14:15.425Z,5.62
2018-09-09T07:15:15.394Z,5.62
2018-09-09T07:16:15.381Z,5.62
2018-09-09T07:17:15.371Z,5.62
2018-09-09T07:18:15.359Z,5.62
2018-09-09T07:19:15.476Z,5.62
2018-09-09T07:20:15.336Z,5.62
2018-09-09T07:21:15.325Z,5.62
2018-09-09T07:22:15.314Z,5.62
2018-09-09T07:23:15.302Z,5.62
2018-09-09T07:24:15.312Z,5.62
2018-09-09T07:25:15.285Z,5.62
2018-09-09T07:26:15.269Z,5.62
2018-09-09T07:27:15.258Z,5.62
2018-09-09T07:28:15.246Z,5.62
2018-09-09T07:29:15.256Z,5.62
2018-09-09T07:30:15.225Z,5.62
2018-09-09T07:31:15.306Z,5.62
2018-09-09T07:32:15.203Z,5.62
2018-09-09T07:33:15.191Z,5.62
2018-09-09T07:34:15.223Z,5.62
2018-09-09T07:35:15.169Z,5.62
2018-09-09T07:36:15.157Z,5.62
2018-09-09T07:37:15.214Z,5.62
2018-09-09T07:38:15.138Z,5.62
2018-09-09T07:39:15.157Z,5.62
2018-09-09T07:40:15.114Z,5.62
2018-09-09T07:41:15.106Z,5.62
2018-09-09T07:42:15.091Z,5.62
2018-09-09T07:43:15.081Z,5.62
2018-09-09T07:44:15.089Z,5.62
2018-09-09T07:45:15.057Z,5.62
2018-09-09T07:46:15.061Z,0.00
2018-09-09T07:47:15.054Z,0.00
2018-09-09T07:48:15.027Z,0.00
2018-09-09T07:49:15.037Z,0.00
2018-09-09T07:50:15.002Z,0.00
2018-09-09T07:51:14.989Z,0.00
2018-09-09T07:52:14.984Z,0.00
2018-09-09T07:53:14.969Z,0.00
2018-09-09T07:54:14.978Z,0.00
2018-09-09T07:55:14.965Z,0.00
2018-09-09T07:56:14.939Z,0.00
2018-09-09T07:57:14.927Z,0.00
2018-09-09T07:58:14.912Z,5.62
2018-09-09T07:59:14.922Z,5.62
2018-09-09T08:00:14.914Z,5.62
2018-09-09T08:01:14.877Z,5.62
2018-09-09T08:02:14.866Z,5.62
2018-09-09T08:03:14.856Z,5.62
2018-09-09T08:04:14.869Z,5.62
2018-09-09T08:05:14.834Z,5.62
2018-09-09T08:06:14.823Z,11.25
2018-09-09T08:07:14.811Z,11.25
2018-09-09T08:08:14.801Z,11.25
2018-09-09T08:09:14.809Z,11.25
2018-09-09T08:10:14.798Z,11.25
2018-09-09T08:11:14.769Z,11.25
2018-09-09T08:12:14.847Z,11.25
2018-09-09T08:13:14.744Z,11.25
2018-09-09T08:14:14.735Z,11.25
2018-09-09T08:15:14.747Z,11.25
2018-09-09T08:16:14.714Z,11.25
2018-09-09T08:17:14.699Z,11.25
2018-09-09T08:18:14.699Z,11.25
2018-09-09T08:19:14.677Z,11.25
2018-09-09T08:20:14.687Z,11.25
2018-09-09T08:21:14.655Z,11.25
2018-09-09T08:22:14.650Z,11.25
2018-09-09T08:23:14.635Z,11.25
2018-09-09T08:24:14.667Z,11.25
2018-09-09T08:25:14.630Z,11.25
2018-09-09T08:26:14.602Z,11.25
2018-09-09T08:27:14.588Z,11.25
2018-09-09T08:28:14.577Z,5.62
2018-09-09T08:29:14.566Z,5.62
2018-09-09T08:30:14.576Z,5.62
2018-09-09T08:31:14.543Z,5.62
2018-09-09T08:32:14.532Z,5.62
2018-09-09T08:33:14.521Z,5.62
2018-09-09T08:34:14.510Z,5.62
2018-09-09T08:35:14.519Z,5.62
2018-09-09T08:36:14.488Z,5.62
2018-09-09T08:37:14.481Z,5.62
2018-09-09T08:38:14.465Z,5.62
2018-09-09T08:39:14.454Z,5.62
2018-09-09T08:40:14.464Z,5.62
2018-09-09T08:41:14.431Z,11.25
2018-09-09T08:42:14.421Z,5.62
2018-09-09T08:43:14.411Z,5.62
2018-09-09T08:44:14.398Z,11.25
2018-09-09T08:45:14.408Z,11.25
2018-09-09T08:46:14.376Z,11.25
2018-09-09T08:47:14.365Z,11.25
2018-09-09T08:48:14.353Z,11.25
2018-09-09T08:49:14.342Z,11.25
2018-09-09T08:50:14.352Z,11.25
2018-09-09T08:51:14.326Z,11.25
2018-09-09T08:52:14.388Z,11.25
2018-09-09T08:53:14.297Z,11.25
2018-09-09T08:54:14.286Z,11.25
2018-09-09T08:55:14.295Z,11.25
2018-09-09T08:56:14.267Z,11.25
2018-09-09T08:57:14.253Z,11.25
2018-09-09T08:58:14.241Z,11.25
2018-09-09T08:59:14.233Z,11.25
2018-09-09T09:00:14.243Z,11.25
2018-09-09T09:01:14.208Z,11.25
2018-09-09T09:02:14.197Z,11.25
2018-09-09T09:03:14.186Z,11.25
2018-09-09T09:04:14.175Z,16.88
2018-09-09T09:05:14.188Z,16.88
2018-09-09T09:06:14.153Z,16.88
2018-09-09T09:07:14.140Z,16.88
2018-09-09T09:08:14.192Z,16.88
2018-09-09T09:09:14.118Z,16.88
2018-09-09T09:10:14.129Z,11.25
2018-09-09T09:11:14.097Z,11.25
2018-09-09T09:12:14.085Z,11.25
2018-09-09T09:13:14.075Z,11.25
2018-09-09T09:14:14.062Z,11.25
2018-09-09T09:15:14.074Z,11.25
2018-09-09T09:16:14.040Z,11.25
2018-09-09T09:17:14.029Z,11.25
2018-09-09T09:18:14.019Z,11.25
2018-09-09T09:19:14.008Z,11.25
2018-09-09T09:20:14.019Z,11.25
2018-09-09T09:21:13.986Z,11.25
2018-09-09T09:22:13.974Z,11.25
2018-09-09T09:23:13.963Z,16.88
2018-09-09T09:24:13.951Z,16.88
2018-09-09T09:25:13.962Z,16.88
2018-09-09T09:26:13.928Z,16.88
2018-09-09T09:27:13.917Z,16.88
2018-09-09T09:28:13.907Z,16.88
2018-09-09T09:29:13.897Z,16.88
2018-09-09T09:30:13.907Z,11.25
2018-09-09T09:31:13.873Z,11.25
2018-09-09T09:32:13.864Z,11.25
2018-09-09T09:33:13.854Z,11.25
2018-09-09T09:34:13.839Z,5.62
2018-09-09T09:35:13.850Z,5.62
2018-09-09T09:36:13.817Z,5.62
2018-09-09T09:37:13.806Z,5.62
2018-09-09T09:38:13.795Z,5.62
2018-09-09T09:39:13.795Z,5.62
2018-09-09T09:40:13.795Z,5.62
2018-09-09T09:41:13.767Z,5.62
2018-09-09T09:42:13.754Z,5.62
2018-09-09T09:43:13.742Z,5.62
2018-09-09T09:44:13.727Z,5.62
2018-09-09T09:45:13.742Z,5.62
2018-09-09T09:46:13.707Z,5.62
2018-09-09T09:47:13.695Z,5.62
2018-09-09T09:48:13.683Z,5.62
2018-09-09T09:49:13.673Z,5.62
2018-09-09T09:50:13.683Z,5.62
2018-09-09T09:51:13.652Z,5.62
2018-09-09T09:52:13.638Z,5.62
2018-09-09T09:53:13.678Z,5.62
2018-09-09T09:54:13.622Z,5.62
2018-09-09T09:55:13.712Z,5.62
2018-09-09T09:56:13.600Z,5.62
2018-09-09T09:57:13.582Z,5.62
2018-09-09T09:58:13.572Z,5.62
2018-09-09T09:59:13.560Z,5.62
2018-09-09T10:00:13.549Z,5.62
2018-09-09T10:01:13.560Z,5.62
2018-09-09T10:02:13.527Z,5.62
2018-09-09T10:03:13.521Z,5.62
2018-09-09T10:04:13.508Z,5.62
2018-09-09T10:05:13.494Z,5.62
2018-09-09T10:06:13.508Z,5.62
2018-09-09T10:07:13.471Z,5.62
2018-09-09T10:08:13.464Z,5.62
2018-09-09T10:09:13.450Z,5.62
2018-09-09T10:10:13.439Z,5.62
2018-09-09T10:11:13.446Z,5.62
2018-09-09T10:12:13.414Z,5.62
2018-09-09T10:13:13.403Z,5.62
2018-09-09T10:14:13.393Z,5.62
2018-09-09T10:15:13.506Z,5.62
2018-09-09T10:16:13.392Z,5.62
2018-09-09T10:17:13.359Z,5.62
2018-09-09T10:18:13.353Z,5.62
2018-09-09T10:19:13.337Z,5.62
2018-09-09T10:20:13.329Z,5.62
2018-09-09T10:21:13.336Z,5.62
2018-09-09T10:22:13.303Z,5.62
2018-09-09T10:23:13.293Z,11.25
2018-09-09T10:24:13.284Z,5.62
2018-09-09T10:25:13.271Z,5.62
2018-09-09T10:26:13.281Z,5.62
2018-09-09T10:27:13.249Z,5.62
2018-09-09T10:28:13.237Z,5.62
2018-09-09T10:29:13.226Z,11.25
2018-09-09T10:30:13.323Z,5.62
2018-09-09T10:31:13.227Z,5.62
2018-09-09T10:32:13.191Z,5.62
2018-09-09T10:33:13.181Z,5.62
2018-09-09T10:34:13.170Z,11.25
2018-09-09T10:35:13.159Z,11.25
2018-09-09T10:36:13.169Z,11.25
2018-09-09T10:37:13.136Z,11.25
2018-09-09T10:38:13.126Z,11.25
2018-09-09T10:39:13.114Z,5.62
2018-09-09T10:40:13.103Z,5.62
2018-09-09T10:41:13.113Z,5.62
2018-09-09T10:42:13.080Z,5.62
2018-09-09T10:43:13.070Z,5.62
2018-09-09T10:44:13.058Z,5.62
2018-09-09T10:45:13.047Z,5.62
2018-09-09T10:46:13.177Z,5.62
2018-09-09T10:47:13.046Z,5.62
2018-09-09T10:48:13.014Z,5.62
2018-09-09T10:49:13.002Z,5.62
2018-09-09T10:50:12.994Z,5.62
2018-09-09T10:51:13.001Z,5.62
2018-09-09T10:52:12.968Z,5.62
2018-09-09T10:53:13.028Z,5.62
2018-09-09T10:54:12.946Z,5.62
2018-09-09T10:55:12.941Z,5.62
2018-09-09T10:56:12.948Z,5.62
2018-09-09T10:57:12.913Z,5.62
2018-09-09T10:58:12.903Z,5.62
2018-09-09T10:59:12.890Z,5.62
2018-09-09T11:00:12.881Z,5.62
2018-09-09T11:01:12.889Z,5.62
2018-09-09T11:02:12.858Z,5.62
2018-09-09T11:03:12.846Z,5.62
2018-09-09T11:04:12.835Z,5.62
2018-09-09T11:05:12.828Z,5.62
2018-09-09T11:06:12.834Z,5.62
2018-09-09T11:07:12.802Z,5.62
2018-09-09T11:08:12.793Z,5.62
2018-09-09T11:09:12.779Z,5.62
2018-09-09T11:10:12.772Z,5.62
2018-09-09T11:11:12.780Z,5.62
2018-09-09T11:12:12.745Z,5.62
2018-09-09T11:13:12.734Z,5.62
2018-09-09T11:14:12.724Z,5.62
2018-09-09T11:15:12.712Z,5.62
2018-09-09T11:16:12.722Z,5.62
2018-09-09T11:17:12.689Z,5.62
2018-09-09T11:18:12.678Z,5.62
2018-09-09T11:19:12.669Z,5.62
2018-09-09T11:20:12.657Z,5.62
2018-09-09T11:21:12.668Z,5.62
2018-09-09T11:22:12.635Z,5.62
2018-09-09T11:23:12.626Z,5.62
2018-09-09T11:24:12.682Z,5.62
2018-09-09T11:25:12.601Z,5.62
2018-09-09T11:26:12.610Z,5.62
2018-09-09T11:27:12.579Z,5.62
2018-09-09T11:28:12.566Z,5.62
2018-09-09T11:29:12.557Z,11.25
2018-09-09T11:30:12.545Z,11.25
2018-09-09T11:31:12.556Z,11.25
2018-09-09T11:32:12.523Z,5.62
2018-09-09T11:33:12.511Z,5.62
2018-09-09T11:34:12.500Z,11.25
2018-09-09T11:35:12.489Z,11.25
2018-09-09T11:36:12.558Z,11.25
2018-09-09T11:37:12.467Z,11.25
2018-09-09T11:38:12.456Z,16.88
2018-09-09T11:39:12.465Z,16.88
2018-09-09T11:40:12.433Z,16.88
2018-09-09T11:41:12.422Z,16.88
2018-09-09T11:42:12.432Z,16.88
2018-09-09T11:43:12.400Z,11.25
2018-09-09T11:44:12.389Z,11.25
2018-09-09T11:45:12.379Z,16.88
2018-09-09T11:46:12.366Z,16.88
2018-09-09T11:47:12.376Z,16.88
2018-09-09T11:48:12.343Z,16.88
2018-09-09T11:49:12.335Z,11.25
2018-09-09T11:50:12.322Z,11.25
2018-09-09T11:51:12.311Z,11.25
2018-09-09T11:52:12.320Z,16.88
2018-09-09T11:53:12.309Z,22.50
2018-09-09T11:54:12.277Z,22.50
2018-09-09T11:55:12.267Z,22.50
2018-09-09T11:56:12.255Z,22.50
2018-09-09T11:57:12.265Z,16.88
2018-09-09T11:58:12.231Z,16.88
2018-09-09T11:59:12.224Z,11.25
2018-09-09T12:00:12.213Z,16.88
2018-09-09T12:01:12.200Z,16.88
2018-09-09T12:02:12.208Z,22.50
2018-09-09T12:03:12.177Z,22.50
2018-09-09T12:04:12.165Z,16.88
2018-09-09T12:05:12.177Z,16.88
2018-09-09T12:06:12.144Z,16.88
2018-09-09T12:07:12.155Z,16.88
2018-09-09T12:08:12.124Z,11.25
2018-09-09T12:09:12.109Z,16.88
2018-09-09T12:10:12.098Z,11.25
2018-09-09T12:11:12.086Z,11.25
2018-09-09T12:12:12.097Z,11.25
2018-09-09T12:13:12.064Z,11.25
2018-09-09T12:14:12.053Z,11.25
2018-09-09T12:15:12.042Z,11.25
2018-09-09T12:16:12.031Z,11.25
2018-09-09T12:17:12.041Z,11.25
2018-09-09T12:18:12.008Z,11.25
2018-09-09T12:19:11.998Z,11.25
2018-09-09T12:20:11.986Z,16.88
2018-09-09T12:21:11.975Z,16.88
2018-09-09T12:22:11.985Z,22.50
2018-09-09T12:23:11.952Z,28.12
2018-09-09T12:24:11.941Z,33.75
2018-09-09T12:25:11.930Z,33.75
2018-09-09T12:26:11.918Z,28.12
2018-09-09T12:27:11.928Z,28.12
2018-09-09T12:28:11.898Z,28.12
2018-09-09T12:29:11.885Z,28.12
2018-09-09T12:30:11.875Z,33.75
2018-09-09T12:31:11.868Z,39.38
2018-09-09T12:32:11.890Z,39.38
2018-09-09T12:33:11.843Z,33.75
2018-09-09T12:34:11.830Z,39.38
2018-09-09T12:35:11.818Z,33.75
2018-09-09T12:36:11.807Z,28.12
2018-09-09T12:37:11.817Z,33.75
2018-09-09T12:38:11.785Z,28.12
2018-09-09T12:39:11.774Z,28.12
2018-09-09T12:40:11.763Z,28.12
2018-09-09T12:41:11.754Z,28.12
2018-09-09T12:42:11.761Z,28.12
2018-09-09T12:43:11.730Z,28.12
2018-09-09T12:44:11.718Z,28.12
2018-09-09T12:45:11.708Z,28.12
2018-09-09T12:46:11.697Z,28.12
2018-09-09T12:47:11.755Z,33.75
2018-09-09T12:48:11.674Z,33.75
2018-09-09T12:49:11.663Z,33.75
2018-09-09T12:50:11.652Z,33.75
2018-09-09T12:51:11.642Z,28.12
2018-09-09T12:52:11.651Z,28.12
2018-09-09T12:53:11.619Z,28.12
2018-09-09T12:54:11.607Z,33.75
2018-09-09T12:55:11.597Z,39.38
2018-09-09T12:56:11.586Z,39.38
2018-09-09T12:57:11.595Z,45.00
2018-09-09T12:58:11.564Z,45.00
2018-09-09T12:59:11.552Z,45.00
2018-09-09T13:00:11.602Z,45.00
2018-09-09T13:01:11.530Z,39.38
2018-09-09T13:02:11.539Z,39.38
2018-09-09T13:03:11.507Z,45.00
2018-09-09T13:04:11.497Z,101.25
2018-09-09T13:05:11.484Z,146.25
2018-09-09T13:06:11.474Z,202.50
2018-09-09T13:07:11.507Z,253.12
2018-09-09T13:08:11.453Z,303.75
2018-09-09T13:09:11.442Z,315.00
2018-09-09T13:10:11.431Z,348.75
2018-09-09T13:11:11.419Z,247.50
2018-09-09T13:12:11.426Z,168.75